createdAt,value
2023-05-06T00:30:05.728Z,100767.25
2023-05-06T01:40:38.439Z,100828.84
2023-05-06T01:45:30.625Z,100836.50
2023-05-06T01:49:19.571Z,100839.41
2023-05-06T01:52:27.797Z,100839.91
2023-05-06T01:55:44.249Z,100846.47
2023-05-06T01:59:24.567Z,100858.34
2023-05-06T02:03:13.641Z,100863.91
2023-05-06T02:13:05.930Z,100864.19
2023-05-06T02:26:37.776Z,100867.00
2023-05-06T02:39:39.912Z,100869.50
2023-05-06T02:52:29.835Z,100889.56
2023-05-06T03:04:52.515Z,100884.09
2023-05-06T03:07:49.842Z,100884.00
2023-05-06T03:15:29.793Z,100894.22
2023-05-06T03:22:30.092Z,100891.16
2023-05-06T03:26:02.348Z,100899.84
2023-05-06T03:33:57.458Z,100901.13
2023-05-06T03:37:04.691Z,100906.97
2023-05-06T03:40:29.400Z,100903.47
2023-05-06T03:51:06.480Z,100913.19
2023-05-06T03:58:40.713Z,100908.91
2023-05-06T04:01:37.660Z,100905.25
2023-05-06T04:05:03.604Z,100903.28
2023-05-06T04:08:18.024Z,100905.75
2023-05-06T04:15:45.094Z,100903.28
2023-05-06T04:19:12.497Z,100908.78
2023-05-06T04:22:33.737Z,100911.72
2023-05-06T04:25:57.980Z,100900.69
2023-05-06T04:29:01.418Z,100906.28
2023-05-06T04:32:29.248Z,100913.34
2023-05-06T04:35:37.230Z,100917.06
2023-05-06T04:42:46.180Z,100924.91
2023-05-06T04:46:22.167Z,100926.56
2023-05-06T04:54:48.878Z,100932.91
2023-05-06T04:58:20.690Z,100922.63
2023-05-06T05:01:37.694Z,100925.44
2023-05-06T05:05:34.764Z,100929.94
2023-05-06T05:09:14.949Z,100924.91
2023-05-06T05:13:29.180Z,100926.72
2023-05-06T05:29:43.599Z,100921.72
2023-05-06T05:38:33.606Z,100928.78
2023-05-06T05:42:37.216Z,100929.00
2023-05-06T06:37:13.171Z,100925.03
2023-05-06T06:41:08.172Z,100930.16
2023-05-06T07:21:41.513Z,100950.19
2023-05-06T07:52:18.379Z,100956.69
2023-05-06T07:56:24.808Z,100968.50
2023-05-06T08:09:14.808Z,100965.09
2023-05-06T08:15:45.902Z,100963.31
2023-05-06T08:19:58.657Z,100971.97
2023-05-06T08:22:56.650Z,100977.50
2023-05-06T08:36:34.412Z,100976.16
2023-05-06T08:44:06.481Z,100978.19
2023-05-06T08:47:05.428Z,100975.28
2023-05-06T08:54:11.558Z,100989.25
2023-05-06T08:58:13.455Z,100990.72
2023-05-06T09:02:01.895Z,100998.00
2023-05-06T09:05:31.429Z,100997.91
2023-05-06T09:09:12.668Z,100994.66
2023-05-06T09:12:10.380Z,100995.16
2023-05-06T09:15:05.661Z,100992.78
2023-05-06T09:18:41.718Z,100993.97
2023-05-06T10:10:38.889Z,101023.41
2023-05-06T10:23:14.698Z,101031.16
2023-05-06T10:39:08.140Z,101055.63
2023-05-06T10:47:08.179Z,101054.63
2023-05-06T10:50:54.398Z,101055.84
2023-05-06T10:55:04.066Z,101062.50
2023-05-06T11:07:08.346Z,101060.72
2023-05-06T11:12:06.292Z,101067.19
2023-05-06T12:06:39.815Z,101106.72
2023-05-06T12:10:05.999Z,101108.97
2023-05-06T12:13:40.800Z,101105.84
2023-05-06T12:57:07.324Z,101093.16
2023-05-06T12:59:58.024Z,101096.94
2023-05-06T13:02:33.547Z,101097.03
2023-05-06T13:05:24.646Z,101101.16
2023-05-06T13:08:01.660Z,101099.34
2023-05-06T13:10:37.534Z,101096.09
2023-05-06T13:13:08.779Z,101094.38
2023-05-06T13:15:46.312Z,101089.38
2023-05-06T13:18:21.837Z,101101.34
2023-05-06T13:21:00.256Z,101085.09
2023-05-06T13:23:32.870Z,101093.25
2023-05-06T13:26:08.519Z,101087.31
2023-05-06T13:28:43.153Z,101084.53
2023-05-06T13:31:33.232Z,101102.25
2023-05-06T13:34:09.934Z,101092.00
2023-05-06T13:36:50.119Z,101084.44
2023-05-06T13:39:23.954Z,101085.47
2023-05-06T13:42:00.465Z,101083.25
2023-05-06T13:44:33.300Z,101081.53
2023-05-06T13:47:10.455Z,101083.66
2023-05-06T13:49:45.136Z,101080.59
2023-05-06T13:52:24.795Z,101069.00
2023-05-06T13:55:00.342Z,101071.69
2023-05-06T13:57:32.905Z,101063.63
2023-05-06T14:00:03.443Z,101069.50
2023-05-06T14:02:37.654Z,101074.34
2023-05-06T14:05:12.067Z,101066.84
2023-05-06T14:07:45.680Z,101057.19
2023-05-06T14:10:22.921Z,101069.25
2023-05-06T14:12:56.499Z,101067.94
2023-05-06T14:15:31.339Z,101077.78
2023-05-06T14:18:08.550Z,101076.84
2023-05-06T14:20:41.129Z,101074.34
2023-05-06T14:23:12.944Z,101074.22
2023-05-06T14:25:50.095Z,101084.22
2023-05-06T14:28:24.320Z,101078.03
2023-05-06T14:30:56.622Z,101074.25
2023-05-06T14:33:28.442Z,101065.94
2023-05-06T14:36:09.770Z,101069.56
2023-05-06T14:38:50.776Z,101069.09
2023-05-06T14:41:24.971Z,101072.41
2023-05-06T14:43:56.830Z,101067.13
2023-05-06T14:46:29.563Z,101068.50
2023-05-06T14:49:04.538Z,101068.28
2023-05-06T14:51:37.105Z,101064.59
2023-05-06T14:54:09.919Z,101075.16
2023-05-06T14:56:46.645Z,101072.41
2023-05-06T14:59:24.284Z,101076.75
2023-05-06T15:02:01.323Z,101074.63
2023-05-06T15:04:34.254Z,101070.56
2023-05-06T15:07:28.279Z,101058.31
2023-05-06T15:10:01.700Z,101064.78
2023-05-06T15:12:36.400Z,101063.56
2023-05-06T15:15:07.895Z,101058.25
2023-05-06T15:17:38.497Z,101062.75
2023-05-06T15:20:09.880Z,101047.44
2023-05-06T15:22:39.904Z,101042.53
2023-05-06T15:25:14.347Z,101046.44
2023-05-06T15:27:49.067Z,101046.13
2023-05-06T15:30:20.439Z,101041.84
2023-05-06T15:32:50.202Z,101036.59
2023-05-06T15:35:21.275Z,101036.34
2023-05-06T15:37:50.861Z,101033.31
2023-05-06T15:40:24.804Z,101031.09
2023-05-06T15:42:54.563Z,101023.84
2023-05-06T15:46:20.841Z,101025.25
2023-05-06T16:04:51.370Z,101009.13
2023-05-06T16:07:22.209Z,101007.06
2023-05-06T16:09:54.423Z,100999.19
2023-05-06T16:12:24.979Z,101006.38
2023-05-06T16:14:55.688Z,101006.16
2023-05-06T16:17:28.018Z,101001.56
2023-05-06T16:19:59.489Z,100997.22
2023-05-06T16:22:30.069Z,100994.94
2023-05-06T16:25:01.638Z,100989.31
2023-05-06T16:27:34.296Z,100980.41
2023-05-06T16:30:05.821Z,100984.75
2023-05-06T16:32:37.218Z,100981.38
2023-05-06T16:35:07.685Z,100988.50
2023-05-06T16:37:39.586Z,100977.75
2023-05-06T16:40:10.483Z,100973.63
2023-05-06T16:42:42.607Z,100961.47
2023-05-06T16:45:19.929Z,100962.03
2023-05-06T16:47:50.274Z,100948.19
2023-05-06T16:50:21.053Z,100945.13
2023-05-06T16:52:52.172Z,100952.78
2023-05-06T16:55:22.981Z,100940.16
2023-05-06T16:57:53.371Z,100943.72
2023-05-06T17:00:24.186Z,100935.53
2023-05-06T17:02:55.880Z,100927.59
2023-05-06T17:05:27.195Z,100937.28
2023-05-06T17:10:30.349Z,100927.78
2023-05-06T17:13:01.543Z,100916.69
2023-05-06T17:15:33.585Z,100912.22
2023-05-06T17:18:03.269Z,100905.75
2023-05-06T17:20:47.548Z,100906.00
2023-05-06T17:23:28.219Z,100902.59
2023-05-06T17:25:58.665Z,100907.13
2023-05-06T17:28:30.280Z,100905.75
2023-05-06T17:31:02.571Z,100909.84
2023-05-06T17:33:35.490Z,100909.81
2023-05-06T17:36:08.407Z,100908.66
2023-05-06T17:38:40.006Z,100908.16
2023-05-06T17:41:11.209Z,100895.59
2023-05-06T17:43:42.050Z,100893.31
2023-05-06T17:46:20.609Z,100891.94
2023-05-06T17:48:50.334Z,100901.47
2023-05-06T17:51:21.250Z,100885.97
2023-05-06T17:53:52.281Z,100882.94
2023-05-06T17:56:23.050Z,100877.19
2023-05-06T17:58:54.381Z,100876.34
2023-05-06T18:01:26.029Z,100873.91
2023-05-06T18:03:58.008Z,100870.94
2023-05-06T18:06:29.522Z,100877.19
2023-05-06T18:09:02.659Z,100858.09
2023-05-06T18:11:34.078Z,100856.44
2023-05-06T18:14:06.416Z,100841.59
2023-05-06T18:16:41.306Z,100853.97
2023-05-06T18:19:12.167Z,100842.00
2023-05-06T18:21:42.094Z,100845.97
2023-05-06T18:24:19.687Z,100855.03
2023-05-06T18:26:50.704Z,100841.81
2023-05-06T18:29:24.081Z,100833.09
2023-05-06T18:31:54.333Z,100834.63
2023-05-06T18:34:28.227Z,100833.56
2023-05-06T18:36:59.453Z,100823.69
2023-05-06T18:39:29.594Z,100822.75
2023-05-06T18:42:01.435Z,100814.25
2023-05-06T18:44:31.573Z,100810.06
2023-05-06T18:47:01.564Z,100810.16
2023-05-06T18:49:32.479Z,100805.94
2023-05-06T18:52:05.938Z,100804.59
2023-05-06T18:54:37.167Z,100805.09
2023-05-06T18:57:10.415Z,100801.19
2023-05-06T18:59:42.995Z,100797.78
2023-05-06T19:02:16.935Z,100779.97
2023-05-06T19:04:52.192Z,100787.38
2023-05-06T19:07:23.189Z,100780.88
2023-05-06T19:09:54.688Z,100783.88
2023-05-06T19:12:28.025Z,100777.00
2023-05-06T19:14:58.600Z,100775.91
2023-05-06T19:17:29.725Z,100774.53
2023-05-06T19:20:01.663Z,100765.22
2023-05-06T19:22:34.140Z,100756.63
2023-05-06T19:25:05.273Z,100751.88
2023-05-06T19:27:37.262Z,100755.53
2023-05-06T19:31:11.052Z,100756.03
2023-05-06T19:35:10.053Z,100755.97
2023-05-06T19:37:50.100Z,100745.19
2023-05-06T19:40:24.962Z,100745.69
2023-05-06T19:42:56.426Z,100742.75
2023-05-06T19:45:27.633Z,100734.47
2023-05-06T19:48:00.561Z,100737.91
2023-05-06T19:50:34.553Z,100728.63
2023-05-06T19:53:07.631Z,100732.06
2023-05-06T19:55:40.909Z,100720.06
2023-05-06T19:58:16.343Z,100722.09
2023-05-06T20:00:48.707Z,100721.22
2023-05-06T20:03:20.178Z,100718.19
2023-05-06T20:05:51.343Z,100714.97
2023-05-06T20:08:21.895Z,100712.47
2023-05-06T20:10:54.123Z,100723.66
2023-05-06T20:13:26.080Z,100715.19
2023-05-06T20:15:58.270Z,100711.63
2023-05-06T20:19:33.707Z,100700.63
2023-05-06T20:22:08.427Z,100699.63
2023-05-06T20:24:40.448Z,100692.19
2023-05-06T20:27:10.817Z,100698.38
2023-05-06T20:29:43.196Z,100700.47
2023-05-06T20:32:20.310Z,100702.91
2023-05-06T20:38:28.569Z,100693.06
2023-05-06T20:41:00.752Z,100695.28
2023-05-06T20:43:32.100Z,100691.06
2023-05-06T20:46:05.080Z,100695.34
2023-05-06T20:48:34.505Z,100689.84
2023-05-06T20:51:05.565Z,100685.22
2023-05-06T20:53:36.531Z,100680.69
2023-05-06T20:56:22.217Z,100673.66
2023-05-06T20:58:57.705Z,100677.94
2023-05-06T21:01:30.147Z,100686.50
2023-05-06T21:04:04.717Z,100679.41
2023-05-06T21:06:35.949Z,100682.16
2023-05-06T21:09:08.345Z,100678.00
2023-05-06T21:11:39.824Z,100681.56
2023-05-06T21:14:10.645Z,100679.09
2023-05-06T21:16:42.362Z,100681.56
2023-05-06T21:19:21.940Z,100676.38
2023-05-06T21:21:53.944Z,100682.13
2023-05-06T21:24:26.060Z,100673.59
2023-05-06T21:26:57.321Z,100677.22
2023-05-06T21:29:28.413Z,100669.81
2023-05-06T21:31:58.710Z,100673.38
2023-05-06T21:34:29.676Z,100679.91
2023-05-06T21:37:02.349Z,100674.47
2023-05-06T21:39:32.948Z,100668.97
2023-05-06T21:42:03.905Z,100664.63
2023-05-06T21:44:34.294Z,100663.53
2023-05-06T21:47:07.232Z,100670.63
2023-05-06T21:49:39.126Z,100660.50
2023-05-06T21:52:10.368Z,100667.91
2023-05-06T21:54:40.966Z,100669.53
2023-05-06T21:57:14.051Z,100661.06
2023-05-06T21:59:47.988Z,100661.88
2023-05-06T22:02:19.711Z,100655.00
2023-05-06T22:04:50.143Z,100661.06
2023-05-06T22:07:22.224Z,100663.78
2023-05-06T22:09:54.200Z,100657.25
2023-05-06T22:12:26.295Z,100664.09
2023-05-06T22:14:58.209Z,100665.44
2023-05-06T22:17:32.204Z,100662.41
2023-05-06T22:20:08.332Z,100656.38
2023-05-06T22:22:38.777Z,100654.47
2023-05-06T22:25:10.706Z,100650.31
2023-05-06T22:27:42.126Z,100644.88
2023-05-06T22:30:18.238Z,100660.72
2023-05-06T22:32:49.700Z,100651.50
2023-05-06T22:35:20.082Z,100658.06
2023-05-06T22:37:51.635Z,100649.56
2023-05-06T22:40:22.782Z,100657.44
2023-05-06T22:42:53.551Z,100655.34
2023-05-06T22:45:24.661Z,100660.97
2023-05-06T22:47:54.217Z,100661.53
2023-05-06T22:50:26.320Z,100657.25
2023-05-06T22:52:58.510Z,100653.69
2023-05-06T22:55:28.930Z,100652.31
2023-05-06T22:57:59.053Z,100651.44
2023-05-06T23:00:28.679Z,100650.78
2023-05-06T23:02:58.768Z,100644.84
2023-05-06T23:05:29.745Z,100644.25
2023-05-06T23:08:00.586Z,100640.66
2023-05-06T23:10:32.785Z,100641.94
2023-05-06T23:13:05.249Z,100651.31
2023-05-06T23:15:36.146Z,100653.09
2023-05-06T23:18:08.061Z,100655.00
2023-05-06T23:20:41.136Z,100664.19
2023-05-06T23:23:11.991Z,100666.69
2023-05-06T23:25:41.598Z,100666.34
2023-05-06T23:28:18.857Z,100673.97
2023-05-06T23:30:50.567Z,100671.56
2023-05-06T23:33:22.488Z,100675.59
2023-05-06T23:35:53.870Z,100670.66
2023-05-06T23:38:26.002Z,100659.19
2023-05-06T23:40:57.629Z,100662.66
2023-05-06T23:43:30.351Z,100661.16
2023-05-06T23:46:01.380Z,100656.63
2023-05-06T23:48:31.265Z,100656.03
2023-05-06T23:51:02.766Z,100651.63
2023-05-06T23:53:34.053Z,100652.38
2023-05-06T23:56:05.952Z,100644.69
2023-05-06T23:58:38.041Z,100655.59
